This is the latest recevied weather packets stored in our database for station/object AA4OM-2. If no packets are shown the sender has not sent any weather packets the latest 10 day(s).
| Time | Temp. | Humidity | Pressure | Rain* | Wind** | Luminosity | Snow |
|---|---|---|---|---|---|---|---|
| 1777839138 | 20° C | 35% | 1019 hPa | 0 mm | - | 756 W/m² | - |
| 1777838834 | 20° C | 35% | 1019.1 hPa | 0 mm | - | 771 W/m² | - |
| 1777838531 | 20° C | 35% | 1019.3 hPa | 0 mm | - | 786 W/m² | - |
| 1777837925 | 20.56° C | 34% | 1019.3 hPa | 0 mm | - | 813 W/m² | - |
| 1777837622 | 20° C | 38% | 1019.6 hPa | 0 mm | - | 825 W/m² | - |
| 1777835798 | 19.44° C | 35% | 1019.9 hPa | 0 mm | - | 894 W/m² | - |
| 1777835495 | 20° C | 36% | 1020 hPa | 0 mm | - | 906 W/m² | - |
| 1777834889 | 19.44° C | 40% | 1020.2 hPa | 0 mm | - | 923 W/m² | - |
| 1777834586 | 18.89° C | 40% | 1020 hPa | 0 mm | - | 930 W/m² | - |
| 1777834281 | 19.44° C | 37% | 1020.3 hPa | 0 mm | - | 941 W/m² | - |
| 1777833673 | 18.89° C | 42% | 1020.5 hPa | 0 mm | - | 956 W/m² | - |
| 1777833067 | 19.44° C | 39% | 1020.1 hPa | 0 mm | - | 962 W/m² | - |
| 1777832765 | 19.44° C | 38% | 1020.4 hPa | 0 mm | - | 968 W/m² | - |
| 1777832463 | 18.89° C | 41% | 1020.5 hPa | 0 mm | - | 972 W/m² | - |
| 1777832159 | 18.89° C | 38% | 1020.6 hPa | 0 mm | - | 977 W/m² | - |
| 1777831856 | 18.89° C | 41% | 1020.5 hPa | 0 mm | - | 979 W/m² | - |
| 1777830948 | 18.33° C | 40% | 1020.7 hPa | 0 mm | - | 981 W/m² | - |
| 1777830645 | 18.33° C | 39% | 1020.9 hPa | 0 mm | - | 987 W/m² | - |
| 1777829128 | 17.78° C | 41% | 1021.5 hPa | 0 mm | - | 981 W/m² | - |
| 1777828825 | 18.33° C | 37% | 1021.4 hPa | 0 mm | - | 982 W/m² | - |
| 1777823973 | 16.67° C | 47% | 1022.6 hPa | 0 mm | - | 875 W/m² | - |
| 1777823367 | 16.67° C | 43% | 1022.5 hPa | 0 mm | - | 849 W/m² | - |
| 1777822763 | 15.56° C | 45% | 1022.6 hPa | 0 mm | - | 821 W/m² | - |
| 1777820947 | 14.44° C | 53% | 1022.7 hPa | 0 mm | - | 69 W/m² | - |
| 1777819734 | 13.89° C | 60% | 1022.8 hPa | 0 mm | - | 622 W/m² | - |
* Rain latest hour (hover to see other rain measurements)
** Current wind speed in m/s (hover to see current wind gust speed)